createdAt,value
2018-06-11T00:01:08.790Z,3.65
2018-06-11T00:03:37.193Z,3.25
2018-06-11T00:06:04.657Z,3.30
2018-06-11T00:08:32.113Z,3.55
2018-06-11T00:10:59.652Z,3.30
2018-06-11T00:13:27.453Z,3.85
2018-06-11T00:15:54.952Z,3.62
2018-06-11T00:18:22.387Z,2.60
2018-06-11T00:20:50.943Z,2.97
2018-06-11T00:23:19.324Z,4.85
2018-06-11T00:25:46.800Z,3.78
2018-06-11T00:28:14.267Z,3.15
2018-06-11T00:30:41.738Z,3.40
2018-06-11T00:33:09.220Z,3.47
2018-06-11T00:35:36.693Z,3.55
2018-06-11T00:38:05.216Z,3.30
2018-06-11T00:43:22.922Z,4.05
2018-06-11T00:45:50.477Z,3.67
2018-06-11T00:48:17.976Z,4.45
2018-06-11T00:50:45.437Z,3.40
2018-06-11T00:53:12.912Z,4.05
2018-06-11T00:55:40.459Z,4.35
2018-06-11T00:58:07.909Z,3.12
2018-06-11T01:00:35.385Z,3.37
2018-06-11T01:03:03.153Z,4.45
2018-06-11T01:05:30.729Z,3.95
2018-06-11T01:07:58.168Z,3.85
2018-06-11T01:10:26.584Z,3.85
2018-06-11T01:12:53.985Z,7.18
2018-06-11T01:15:21.456Z,4.43
2018-06-11T01:17:48.889Z,3.53
2018-06-11T01:20:16.543Z,4.80
2018-06-11T01:22:44.588Z,4.10
2018-06-11T01:25:12.015Z,3.05
2018-06-11T01:27:39.447Z,4.37
2018-06-11T01:30:06.897Z,3.45
2018-06-11T01:32:34.295Z,3.70
2018-06-11T01:35:01.707Z,3.45
2018-06-11T01:37:29.188Z,3.65
2018-06-11T01:39:56.786Z,3.47
2018-06-11T01:42:24.399Z,3.05
2018-06-11T01:44:51.878Z,3.50
2018-06-11T01:47:19.365Z,2.95
2018-06-11T01:49:46.823Z,3.45
2018-06-11T01:52:14.276Z,3.28
2018-06-11T01:54:42.445Z,2.90
2018-06-11T01:57:09.876Z,2.67
2018-06-11T01:59:38.402Z,3.65
2018-06-11T02:02:05.880Z,3.10
2018-06-11T02:04:34.029Z,2.30
2018-06-11T02:07:01.753Z,3.40
2018-06-11T02:09:29.161Z,2.85
2018-06-11T02:11:56.947Z,2.30
2018-06-11T02:14:24.387Z,3.90
2018-06-11T02:16:51.833Z,2.70
2018-06-11T02:19:19.228Z,3.55
2018-06-11T02:21:46.674Z,3.50
2018-06-11T02:24:14.089Z,2.90
2018-06-11T02:26:41.569Z,3.67
2018-06-11T02:29:09.062Z,4.05
2018-06-11T02:31:36.510Z,2.90
2018-06-11T02:34:03.905Z,2.95
2018-06-11T02:36:31.344Z,3.17
2018-06-11T02:38:59.734Z,3.22
2018-06-11T02:41:27.192Z,2.78
2018-06-11T02:43:54.667Z,4.53
2018-06-11T02:46:22.123Z,2.80
2018-06-11T02:48:50.712Z,2.67
2018-06-11T02:51:18.187Z,2.92
2018-06-11T02:53:46.313Z,5.15
2018-06-11T02:56:13.788Z,2.67
2018-06-11T02:58:41.256Z,4.57
2018-06-11T03:01:08.801Z,3.20
2018-06-11T03:03:36.282Z,3.45
2018-06-11T03:06:03.724Z,3.53
2018-06-11T03:08:31.267Z,3.80
2018-06-11T03:10:58.744Z,4.50
2018-06-11T03:13:27.881Z,3.50
2018-06-11T03:15:55.290Z,3.37
2018-06-11T03:18:22.780Z,3.80
2018-06-11T03:20:50.244Z,3.42
2018-06-11T03:23:17.744Z,3.47
2018-06-11T03:25:45.163Z,3.10
2018-06-11T03:28:12.830Z,3.22
2018-06-11T03:30:40.309Z,4.30
2018-06-11T03:33:07.967Z,2.85
2018-06-11T03:35:35.511Z,3.85
2018-06-11T03:38:02.920Z,2.90
2018-06-11T03:40:30.396Z,3.00
2018-06-11T03:42:57.942Z,4.05
2018-06-11T03:45:26.017Z,3.62
2018-06-11T03:47:53.526Z,3.33
2018-06-11T03:50:20.984Z,4.00
2018-06-11T03:52:48.541Z,2.80
2018-06-11T03:55:15.951Z,3.17
2018-06-11T03:57:43.383Z,3.33
2018-06-11T04:00:10.846Z,3.12
2018-06-11T04:02:39.420Z,3.40
2018-06-11T04:05:06.867Z,2.90
2018-06-11T04:07:34.340Z,3.47
2018-06-11T04:10:01.804Z,3.78
2018-06-11T04:12:30.393Z,3.10
2018-06-11T04:14:58.029Z,2.12
2018-06-11T04:17:29.177Z,5.22
2018-06-11T04:19:56.631Z,3.75
2018-06-11T04:22:24.102Z,4.03
2018-06-11T04:24:51.614Z,3.37
2018-06-11T04:27:19.253Z,2.97
2018-06-11T04:29:46.731Z,4.87
2018-06-11T04:32:16.643Z,5.00
2018-06-11T04:34:44.140Z,3.35
2018-06-11T04:37:11.683Z,2.83
2018-06-11T04:39:39.508Z,5.12
2018-06-11T04:42:07.607Z,4.60
2018-06-11T04:44:35.109Z,4.12
2018-06-11T04:47:02.584Z,4.75
2018-06-11T04:49:30.070Z,5.07
2018-06-11T04:51:58.444Z,3.75
2018-06-11T04:54:25.911Z,3.95
2018-06-11T04:56:53.590Z,3.60
2018-06-11T04:59:21.125Z,6.55
2018-06-11T05:01:52.435Z,6.80
2018-06-11T05:04:20.741Z,4.25
2018-06-11T05:06:48.760Z,4.40
2018-06-11T05:09:16.199Z,3.17
2018-06-11T05:11:43.632Z,3.53
2018-06-11T05:14:11.067Z,3.70
2018-06-11T05:16:39.564Z,4.22
2018-06-11T05:19:07.505Z,4.07
2018-06-11T05:21:35.077Z,5.55
2018-06-11T05:24:02.471Z,2.90
2018-06-11T05:26:29.951Z,4.90
2018-06-11T05:28:57.442Z,5.07
2018-06-11T05:31:24.990Z,3.47
2018-06-11T05:33:52.475Z,4.20
2018-06-11T05:36:19.985Z,3.97
2018-06-11T05:38:48.362Z,3.72
2018-06-11T05:41:16.419Z,6.03
2018-06-11T05:43:43.956Z,4.18
2018-06-11T05:46:11.387Z,4.50
2018-06-11T05:48:39.052Z,3.50
2018-06-11T05:51:06.505Z,5.20
2018-06-11T05:53:35.354Z,3.97
2018-06-11T05:56:02.952Z,4.47
2018-06-11T05:58:37.131Z,3.53
2018-06-11T06:01:04.571Z,4.40
2018-06-11T06:03:32.221Z,3.92
2018-06-11T06:05:59.755Z,4.30
2018-06-11T06:08:27.397Z,4.70
2018-06-11T06:10:54.818Z,3.30
2018-06-11T06:13:22.276Z,5.75
2018-06-11T06:15:49.689Z,7.35
2018-06-11T06:18:17.150Z,4.72
2018-06-11T06:20:44.623Z,4.20
2018-06-11T06:23:12.111Z,5.90
2018-06-11T06:25:39.640Z,3.95
2018-06-11T06:28:07.103Z,6.47
2018-06-11T06:30:34.595Z,5.40
2018-06-11T06:33:02.070Z,4.32
2018-06-11T06:35:29.541Z,4.18
2018-06-11T06:37:57.057Z,6.20
2018-06-11T06:40:24.553Z,4.28
2018-06-11T06:42:52.039Z,4.05
2018-06-11T06:45:20.475Z,4.15
2018-06-11T06:47:47.931Z,4.97
2018-06-11T06:50:17.792Z,4.25
2018-06-11T06:52:45.533Z,3.95
2018-06-11T06:55:13.186Z,4.62
2018-06-11T06:57:40.725Z,5.65
2018-06-11T07:00:08.208Z,3.85
2018-06-11T07:02:35.665Z,5.05
2018-06-11T07:05:03.131Z,4.12
2018-06-11T07:07:30.577Z,3.72
2018-06-11T07:09:58.144Z,3.90
2018-06-11T07:12:25.545Z,3.92
2018-06-11T07:14:53.068Z,6.03
2018-06-11T07:17:20.481Z,3.55
2018-06-11T07:19:47.971Z,3.90
2018-06-11T07:22:15.418Z,3.28
2018-06-11T07:24:42.860Z,4.15
2018-06-11T07:27:10.331Z,3.80
2018-06-11T07:29:38.159Z,3.00
2018-06-11T07:32:06.466Z,3.20
2018-06-11T07:34:36.199Z,5.53
2018-06-11T07:37:03.687Z,3.75
2018-06-11T07:39:31.147Z,4.18
2018-06-11T07:41:58.629Z,3.92
2018-06-11T07:44:26.123Z,3.25
2018-06-11T07:46:54.207Z,4.12
2018-06-11T07:49:21.683Z,4.53
2018-06-11T07:51:49.119Z,3.70
2018-06-11T07:54:16.592Z,4.97
2018-06-11T07:56:44.026Z,4.30
2018-06-11T07:59:11.520Z,5.37
2018-06-11T08:01:38.957Z,4.57
2018-06-11T08:04:07.247Z,4.05
2018-06-11T08:06:34.733Z,4.75
2018-06-11T08:09:02.251Z,3.30
2018-06-11T08:11:29.649Z,4.18
2018-06-11T08:13:57.826Z,6.45
2018-06-11T08:16:25.364Z,4.15
2018-06-11T08:18:52.760Z,4.37
2018-06-11T08:21:20.317Z,3.65
2018-06-11T08:23:47.797Z,3.20
2018-06-11T08:26:15.197Z,2.45
2018-06-11T08:28:42.614Z,46.70
2018-06-11T08:31:10.133Z,39.97
2018-06-11T08:33:37.691Z,3.25
2018-06-11T08:36:05.164Z,3.53
2018-06-11T08:38:32.663Z,2.62
2018-06-11T08:41:00.113Z,3.28
2018-06-11T08:43:27.596Z,2.75
2018-06-11T08:45:55.020Z,3.08
2018-06-11T08:48:22.487Z,4.15
2018-06-11T08:50:51.175Z,2.80
2018-06-11T08:53:18.652Z,2.50
2018-06-11T08:55:46.054Z,2.62
2018-06-11T08:58:13.494Z,3.35
2018-06-11T09:00:40.915Z,2.90
2018-06-11T09:03:08.473Z,2.30
2018-06-11T09:05:35.961Z,2.95
2018-06-11T09:08:03.443Z,3.70
2018-06-11T09:10:31.122Z,3.40
2018-06-11T09:12:58.599Z,2.40
2018-06-11T09:15:26.117Z,2.22
2018-06-11T09:17:53.633Z,1.60
2018-06-11T09:20:21.224Z,2.10
2018-06-11T09:22:48.688Z,2.10
2018-06-11T09:25:16.245Z,2.10
2018-06-11T09:27:44.672Z,2.25
2018-06-11T09:30:12.129Z,2.10
2018-06-11T09:32:40.681Z,2.20
2018-06-11T09:35:08.135Z,3.10
2018-06-11T09:37:35.620Z,1.70
2018-06-11T09:40:03.023Z,2.40
2018-06-11T09:42:30.534Z,1.90
2018-06-11T09:44:59.463Z,36.35
2018-06-11T09:47:26.908Z,72.15
2018-06-11T09:49:54.672Z,57.22
2018-06-11T09:52:22.123Z,60.40
2018-06-11T09:54:49.611Z,45.40
2018-06-11T09:57:20.296Z,60.25
2018-06-11T09:59:47.781Z,36.55
2018-06-11T10:02:15.267Z,61.10
2018-06-11T10:04:42.730Z,60.15
2018-06-11T10:07:11.786Z,60.40
2018-06-11T10:09:39.243Z,60.33
2018-06-11T10:12:06.700Z,54.85
2018-06-11T10:14:34.142Z,41.80
2018-06-11T10:17:01.591Z,33.60
2018-06-11T10:19:29.293Z,39.85
2018-06-11T10:21:56.909Z,46.97
2018-06-11T10:24:24.352Z,57.80
2018-06-11T10:26:51.761Z,43.55
2018-06-11T10:29:19.231Z,36.08
2018-06-11T10:31:46.684Z,39.20
2018-06-11T10:34:14.189Z,46.17
2018-06-11T10:36:41.628Z,41.40
2018-06-11T10:39:09.140Z,43.92
2018-06-11T10:41:36.621Z,40.63
2018-06-11T10:44:04.167Z,35.67
2018-06-11T10:46:31.646Z,38.72
2018-06-11T10:48:59.091Z,42.30
2018-06-11T10:51:26.593Z,33.67
2018-06-11T10:53:54.054Z,33.75
2018-06-11T10:56:21.685Z,37.90
2018-06-11T10:58:49.132Z,42.28
2018-06-11T11:01:16.699Z,41.92
2018-06-11T11:03:44.232Z,38.53
2018-06-11T11:06:11.701Z,40.55
2018-06-11T11:08:39.856Z,36.97
2018-06-11T11:11:07.323Z,33.83
2018-06-11T11:13:34.879Z,37.40
2018-06-11T11:16:02.320Z,37.10
2018-06-11T11:18:30.590Z,45.00
2018-06-11T11:20:58.047Z,46.03
2018-06-11T11:23:25.496Z,48.65
2018-06-11T11:25:52.949Z,43.53
2018-06-11T11:28:20.427Z,47.08
2018-06-11T11:30:48.284Z,46.78
2018-06-11T11:33:16.607Z,70.20
2018-06-11T11:35:44.230Z,49.83
2018-06-11T11:38:12.520Z,50.85
2018-06-11T11:40:40.042Z,60.12
2018-06-11T11:43:07.550Z,62.47
2018-06-11T11:45:35.025Z,56.58
2018-06-11T11:48:02.642Z,48.87
2018-06-11T11:50:33.547Z,45.78
2018-06-11T11:53:00.986Z,49.38
2018-06-11T11:55:28.540Z,49.83
2018-06-11T11:57:56.025Z,53.90
2018-06-11T12:00:23.658Z,107.03
2018-06-11T12:02:51.144Z,62.15
2018-06-11T12:05:18.593Z,61.17
2018-06-11T12:07:46.068Z,56.30
2018-06-11T12:10:13.572Z,59.53
2018-06-11T12:12:41.181Z,64.00
2018-06-11T12:15:09.372Z,62.65
2018-06-11T12:17:37.258Z,50.38
2018-06-11T12:20:06.406Z,55.12
2018-06-11T12:22:33.862Z,59.65
2018-06-11T12:25:04.138Z,62.15
2018-06-11T12:27:31.564Z,64.32
2018-06-11T12:29:59.058Z,62.80
2018-06-11T12:32:27.313Z,72.37
2018-06-11T12:34:54.842Z,63.35
2018-06-11T12:37:22.295Z,64.10
2018-06-11T12:39:49.742Z,65.28
2018-06-11T12:42:17.217Z,71.18
2018-06-11T12:44:44.727Z,78.15
2018-06-11T12:47:12.387Z,64.87
2018-06-11T12:49:39.808Z,75.47
2018-06-11T12:52:07.279Z,60.22
2018-06-11T12:54:35.054Z,64.00
2018-06-11T12:57:02.588Z,71.57
2018-06-11T12:59:30.093Z,72.10
2018-06-11T13:01:57.667Z,73.10
2018-06-11T13:04:25.697Z,73.03
2018-06-11T13:06:53.155Z,68.05
2018-06-11T13:09:20.568Z,67.68
2018-06-11T13:11:48.032Z,66.30
2018-06-11T13:14:15.628Z,69.50
2018-06-11T13:16:44.177Z,24.02
2018-06-11T13:19:11.638Z,2.92
2018-06-11T13:21:40.388Z,1.90
2018-06-11T13:24:07.867Z,3.05
2018-06-11T13:26:35.362Z,2.45
2018-06-11T13:29:04.207Z,2.62
2018-06-11T13:31:31.650Z,2.92
2018-06-11T13:34:00.257Z,2.58
2018-06-11T13:36:27.700Z,2.87
2018-06-11T13:38:55.173Z,2.30
2018-06-11T13:41:23.793Z,4.15
2018-06-11T13:43:51.236Z,2.40
2018-06-11T13:46:19.688Z,2.75
2018-06-11T13:48:47.226Z,2.33
2018-06-11T13:51:14.633Z,2.47
2018-06-11T13:53:42.786Z,3.20
2018-06-11T13:56:10.203Z,3.35
2018-06-11T13:58:37.726Z,2.83
2018-06-11T14:01:05.209Z,3.97
2018-06-11T14:03:33.497Z,2.80
2018-06-11T14:06:01.106Z,3.95
2018-06-11T14:08:28.554Z,2.90
2018-06-11T14:10:56.016Z,3.90
2018-06-11T14:13:23.530Z,2.97
2018-06-11T14:15:51.541Z,3.95
2018-06-11T14:18:19.004Z,4.28
2018-06-11T14:20:46.790Z,4.85
2018-06-11T14:23:14.331Z,4.07
2018-06-11T14:25:41.752Z,4.40
2018-06-11T14:28:10.412Z,3.70
2018-06-11T14:30:37.872Z,3.70
2018-06-11T14:33:05.389Z,3.45
2018-06-11T14:35:32.934Z,3.10
2018-06-11T14:38:00.407Z,2.90
2018-06-11T14:40:27.873Z,2.70
2018-06-11T14:42:56.793Z,2.75
2018-06-11T14:45:24.227Z,3.80
2018-06-11T14:47:51.720Z,2.70
2018-06-11T14:50:20.080Z,3.40
2018-06-11T14:52:47.518Z,3.60
2018-06-11T14:55:16.064Z,2.55
2018-06-11T14:57:43.518Z,3.03
2018-06-11T15:00:11.922Z,2.53
2018-06-11T15:02:40.145Z,3.05
2018-06-11T15:05:07.600Z,4.35
2018-06-11T15:07:36.557Z,2.87
2018-06-11T15:10:04.866Z,3.00
2018-06-11T15:12:32.365Z,4.12
2018-06-11T15:14:59.834Z,3.15
2018-06-11T15:17:27.999Z,3.03
2018-06-11T15:19:56.030Z,2.92
2018-06-11T15:22:23.480Z,2.50
2018-06-11T15:24:52.828Z,3.45
2018-06-11T15:27:20.283Z,3.00
2018-06-11T15:29:47.813Z,5.30
2018-06-11T15:32:15.239Z,2.83
2018-06-11T15:34:42.839Z,2.80
2018-06-11T15:37:10.439Z,3.78
2018-06-11T15:39:37.890Z,4.12
2018-06-11T15:42:05.450Z,4.07
2018-06-11T15:44:32.949Z,2.60
2018-06-11T15:47:00.430Z,2.55
2018-06-11T15:49:27.874Z,3.55
2018-06-11T15:51:55.367Z,2.67
2018-06-11T15:54:22.932Z,3.97
2018-06-11T15:56:52.121Z,4.50
2018-06-11T15:59:19.579Z,3.87
2018-06-11T16:01:47.065Z,2.03
2018-06-11T16:04:14.586Z,2.70
2018-06-11T16:06:43.230Z,3.15
2018-06-11T16:09:10.819Z,2.60
2018-06-11T16:11:39.739Z,4.50
2018-06-11T16:14:07.359Z,2.10
2018-06-11T16:16:34.899Z,2.70
2018-06-11T16:19:03.269Z,3.00
2018-06-11T16:21:30.736Z,3.83
2018-06-11T16:23:58.229Z,3.28
2018-06-11T16:26:25.665Z,2.87
2018-06-11T16:28:53.908Z,3.55
2018-06-11T16:31:21.388Z,3.10
2018-06-11T16:33:50.701Z,3.45
2018-06-11T16:36:18.174Z,2.30
2018-06-11T16:38:45.712Z,2.97
2018-06-11T16:41:13.234Z,2.87
2018-06-11T16:43:40.852Z,3.53
2018-06-11T16:46:08.410Z,2.35
2018-06-11T16:48:35.917Z,2.22
2018-06-11T16:51:04.015Z,3.40
2018-06-11T16:53:31.457Z,2.65
2018-06-11T16:55:58.917Z,3.58
2018-06-11T16:58:26.330Z,2.55
2018-06-11T17:00:53.823Z,4.37
2018-06-11T17:03:21.265Z,3.03
2018-06-11T17:05:49.727Z,2.40
2018-06-11T17:08:17.890Z,2.17
2018-06-11T17:10:45.331Z,2.05
2018-06-11T17:13:12.905Z,2.47
2018-06-11T17:15:40.372Z,2.45
2018-06-11T17:18:07.824Z,4.20
2018-06-11T17:20:35.317Z,3.65
2018-06-11T17:23:02.757Z,4.60
2018-06-11T17:25:31.878Z,2.85
2018-06-11T17:27:59.284Z,3.65
2018-06-11T17:30:26.778Z,2.40
2018-06-11T17:32:54.243Z,3.05
2018-06-11T17:35:21.728Z,3.12
2018-06-11T17:37:49.163Z,3.72
2018-06-11T17:40:16.673Z,2.87
2018-06-11T17:42:44.148Z,4.00
2018-06-11T17:45:11.565Z,3.15
2018-06-11T17:47:38.984Z,2.70
2018-06-11T17:50:06.424Z,4.03
2018-06-11T17:52:33.833Z,2.80
2018-06-11T17:55:01.358Z,3.50
2018-06-11T17:57:29.033Z,6.10
2018-06-11T17:59:56.483Z,3.30
2018-06-11T18:02:23.900Z,3.12
2018-06-11T18:04:51.347Z,2.75
2018-06-11T18:07:18.830Z,2.50
2018-06-11T18:09:46.275Z,3.62
2018-06-11T18:12:13.778Z,2.78
2018-06-11T18:14:41.242Z,3.00
2018-06-11T18:17:08.772Z,12.93
2018-06-11T18:19:36.254Z,4.30
2018-06-11T18:22:03.678Z,5.68
2018-06-11T18:24:31.366Z,2.67
2018-06-11T18:26:58.794Z,2.97
2018-06-11T18:29:26.223Z,2.45
2018-06-11T18:31:53.744Z,3.83
2018-06-11T18:34:21.250Z,3.50
2018-06-11T18:36:48.697Z,3.00
2018-06-11T18:39:16.167Z,3.55
2018-06-11T18:41:44.949Z,2.50
2018-06-11T18:44:12.405Z,2.95
2018-06-11T18:46:40.557Z,3.97
2018-06-11T18:49:08.093Z,3.45
2018-06-11T18:51:35.491Z,4.82
2018-06-11T18:54:04.327Z,5.80
2018-06-11T18:56:32.633Z,4.18
2018-06-11T18:59:00.267Z,3.03
2018-06-11T19:01:27.787Z,4.40
2018-06-11T19:03:55.270Z,2.03
2018-06-11T19:06:22.948Z,2.30
2018-06-11T19:08:50.467Z,2.12
2018-06-11T19:11:17.938Z,2.35
2018-06-11T19:13:45.476Z,3.75
2018-06-11T19:16:12.966Z,2.65
2018-06-11T19:18:40.950Z,14.35
2018-06-11T19:21:08.503Z,3.90
2018-06-11T19:23:36.011Z,3.67
2018-06-11T19:26:03.618Z,4.37
2018-06-11T19:28:31.091Z,8.18
2018-06-11T19:30:58.527Z,3.75
2018-06-11T19:33:26.051Z,3.50
2018-06-11T19:35:53.616Z,2.70
2018-06-11T19:38:21.193Z,2.03
2018-06-11T19:40:48.720Z,2.75
2018-06-11T19:43:16.479Z,3.15
2018-06-11T19:45:44.047Z,3.65
2018-06-11T19:48:11.464Z,3.12
2018-06-11T19:50:38.950Z,3.20
2018-06-11T19:53:06.504Z,2.35
2018-06-11T19:55:34.025Z,2.25
2018-06-11T19:58:01.704Z,1.55
2018-06-11T20:00:29.300Z,1.90
2018-06-11T20:03:00.367Z,1.33
2018-06-11T20:05:27.874Z,1.83
2018-06-11T20:07:55.449Z,3.53
2018-06-11T20:10:22.992Z,1.50
2018-06-11T20:12:50.498Z,1.25
2018-06-11T20:15:18.036Z,1.30
2018-06-11T20:17:46.454Z,2.22
2018-06-11T20:20:13.866Z,1.10
2018-06-11T20:22:41.334Z,2.35
2018-06-11T20:25:08.884Z,1.75
2018-06-11T20:27:36.520Z,1.30
2018-06-11T20:30:06.482Z,1.55
2018-06-11T20:32:34.378Z,2.92
2018-06-11T20:35:01.835Z,1.92
2018-06-11T20:37:29.292Z,2.15
2018-06-11T20:39:57.422Z,1.00
2018-06-11T20:42:24.849Z,1.52
2018-06-11T20:44:52.407Z,2.12
2018-06-11T20:47:19.847Z,1.90
2018-06-11T20:49:47.387Z,2.03
2018-06-11T20:52:15.198Z,2.03
2018-06-11T20:54:42.767Z,0.90
2018-06-11T20:57:10.223Z,1.42
2018-06-11T20:59:37.747Z,1.10
2018-06-11T21:02:05.155Z,1.73
2018-06-11T21:04:32.681Z,1.80
2018-06-11T21:07:01.100Z,1.25
2018-06-11T21:09:28.579Z,1.27
2018-06-11T21:11:56.071Z,1.05
2018-06-11T21:14:23.523Z,1.52
2018-06-11T21:16:51.012Z,2.00
2018-06-11T21:19:18.512Z,1.30
2018-06-11T21:21:45.985Z,1.12
2018-06-11T21:24:13.502Z,1.50
2018-06-11T21:26:40.926Z,1.95
2018-06-11T21:29:15.844Z,1.37
2018-06-11T21:31:43.383Z,1.02
2018-06-11T21:34:12.992Z,1.60
2018-06-11T21:36:40.508Z,1.67
2018-06-11T21:39:07.946Z,1.67
2018-06-11T21:41:35.470Z,1.80
2018-06-11T21:44:05.605Z,1.60
2018-06-11T21:46:35.442Z,1.45
2018-06-11T21:49:03.769Z,2.05
2018-06-11T21:51:31.277Z,1.15
2018-06-11T21:53:58.749Z,2.75
2018-06-11T21:56:26.287Z,1.27
2018-06-11T21:58:53.803Z,1.20
2018-06-11T22:01:21.435Z,1.73
2018-06-11T22:03:49.071Z,1.75
2018-06-11T22:06:16.376Z,2.58
2018-06-11T22:08:43.836Z,1.50
2018-06-11T22:11:11.323Z,1.98
2018-06-11T22:13:38.844Z,1.50
2018-06-11T22:16:06.450Z,1.55
2018-06-11T22:18:34.081Z,1.83
2018-06-11T22:21:01.548Z,1.45
2018-06-11T22:23:29.106Z,1.50
2018-06-11T22:25:56.517Z,1.55
2018-06-11T22:28:23.949Z,1.65
2018-06-11T22:30:51.364Z,2.65
2018-06-11T22:33:18.794Z,1.77
2018-06-11T22:35:46.267Z,1.52
2018-06-11T22:38:13.759Z,1.87
2018-06-11T22:40:41.194Z,1.15
2018-06-11T22:43:08.586Z,1.70
2018-06-11T22:45:36.039Z,1.85
2018-06-11T22:48:04.040Z,2.10
2018-06-11T22:50:31.446Z,2.55
2018-06-11T22:52:59.323Z,1.92
2018-06-11T22:55:26.749Z,2.20
2018-06-11T22:57:54.314Z,1.65
2018-06-11T23:00:25.369Z,1.60
2018-06-11T23:02:52.862Z,2.47
2018-06-11T23:05:21.152Z,2.45
2018-06-11T23:07:48.561Z,2.28
2018-06-11T23:10:15.991Z,4.37
2018-06-11T23:12:44.676Z,2.65
2018-06-11T23:15:12.094Z,2.40
2018-06-11T23:17:39.602Z,1.20
2018-06-11T23:20:07.676Z,1.48
2018-06-11T23:22:35.222Z,2.35
2018-06-11T23:25:02.668Z,0.95
2018-06-11T23:27:30.818Z,1.75
2018-06-11T23:29:58.244Z,1.20
2018-06-11T23:32:25.646Z,1.25
2018-06-11T23:34:55.028Z,1.20
2018-06-11T23:37:22.446Z,1.08
2018-06-11T23:39:49.858Z,1.75
2018-06-11T23:42:17.311Z,1.08
2018-06-11T23:44:45.342Z,1.00
2018-06-11T23:47:12.778Z,1.27
2018-06-11T23:49:40.208Z,1.40
2018-06-11T23:52:07.650Z,1.85
2018-06-11T23:54:35.168Z,1.35
2018-06-11T23:57:03.001Z,1.52
2018-06-11T23:59:30.470Z,1.35
